Time;durP1;ratioP1;P1;durP2;ratioP2;P2;SDS_P1;SDS_P2;PMS_P1;PMS_P2;Temp;Humidity;BMP_temperature;BMP_pressure;BME280_temperature;BME280_humidity;BME280_pressure;Samples;Min_cycle;Max_cycle;Signal;HPM_P1;HPM_P2
2023/06/02 00:01:57;;;;;;;4.00;2.67;;;23.20;56.20;;;;;;5021076;28;20419;-78
2023/06/02 00:04:26;;;;;;;2.80;2.60;;;23.20;56.30;;;;;;5054101;28;20439;-77
2023/06/02 00:06:55;;;;;;;2.47;2.27;;;23.20;56.30;;;;;;5038965;28;20969;-77
2023/06/02 00:09:23;;;;;;;3.17;2.33;;;23.20;56.20;;;;;;5005529;28;20426;-78
2023/06/02 00:11:52;;;;;;;3.23;2.20;;;23.20;56.20;;;;;;5021536;28;20446;-77
2023/06/02 00:14:21;;;;;;;3.10;2.23;;;23.10;56.10;;;;;;5021019;28;20470;-77
2023/06/02 00:16:48;;;;;;;3.13;2.30;;;23.10;56.10;;;;;;5020911;28;20445;-78
2023/06/02 00:19:18;;;;;;;3.90;3.00;;;23.10;56.10;;;;;;5021157;28;20423;-78
2023/06/02 00:21:51;;;;;;;5.83;2.43;;;23.10;56.10;;;;;;5053843;28;20447;-77
2023/06/02 00:24:19;;;;;;;2.60;2.40;;;23.10;56.10;;;;;;5037298;28;20442;-78
2023/06/02 00:26:45;;;;;;;3.30;2.30;;;23.10;56.10;;;;;;5036936;28;20419;-79
2023/06/02 00:29:11;;;;;;;2.93;2.53;;;23.00;56.00;;;;;;5036308;28;20442;-79
2023/06/02 00:31:42;;;;;;;2.50;2.27;;;23.00;56.10;;;;;;5036723;28;20407;-79
2023/06/02 00:34:10;;;;;;;4.03;2.40;;;23.00;56.10;;;;;;4987958;28;20452;-78
2023/06/02 00:36:41;;;;;;;3.20;2.63;;;23.00;56.20;;;;;;5031909;28;20481;-79
2023/06/02 00:39:07;;;;;;;3.43;2.70;;;23.00;56.20;;;;;;5056265;28;20972;-79
2023/06/02 00:41:38;;;;;;;2.97;2.63;;;22.90;56.20;;;;;;5023520;28;20432;-78
2023/06/02 00:44:04;;;;;;;3.60;2.93;;;22.90;56.10;;;;;;5039591;28;20460;-78
2023/06/02 00:46:32;;;;;;;3.07;2.80;;;22.90;56.10;;;;;;5039515;28;20958;-78
2023/06/02 00:49:04;;;;;;;3.30;2.70;;;22.90;56.10;;;;;;5024808;28;20426;-78
2023/06/02 00:51:32;;;;;;;2.97;2.67;;;22.80;56.00;;;;;;5023716;28;20449;-78
2023/06/02 00:53:58;;;;;;;3.43;2.97;;;22.80;56.00;;;;;;5039951;28;20497;-78
2023/06/02 00:56:25;;;;;;;3.23;2.63;;;22.80;56.00;;;;;;5039658;28;20495;-77
2023/06/02 00:58:53;;;;;;;3.80;3.13;;;22.80;56.00;;;;;;5039673;28;20465;-79
2023/06/02 01:01:22;;;;;;;2.77;2.50;;;22.70;55.90;;;;;;5056372;28;20505;-79
2023/06/02 01:03:50;;;;;;;6.97;3.27;;;22.70;55.90;;;;;;5040192;28;20477;-79
2023/06/02 01:06:23;;;;;;;4.70;2.90;;;22.70;56.00;;;;;;5047990;28;20444;-79
2023/06/02 01:08:51;;;;;;;4.20;2.90;;;22.70;55.90;;;;;;5036209;28;20423;-79
2023/06/02 01:11:20;;;;;;;4.90;2.70;;;22.70;55.90;;;;;;5018833;28;20481;-80
2023/06/02 01:13:48;;;;;;;5.80;2.70;;;22.60;55.80;;;;;;5036384;28;20465;-79
2023/06/02 01:16:15;;;;;;;5.10;2.50;;;22.60;55.80;;;;;;5018975;28;20434;-80
2023/06/02 01:18:45;;;;;;;4.10;2.70;;;22.60;55.80;;;;;;5052111;28;20443;-81
2023/06/02 01:21:21;;;;;;;3.00;2.63;;;22.60;55.80;;;;;;5036578;28;20396;-81
2023/06/02 01:23:53;;;;;;;5.70;2.60;;;22.50;55.70;;;;;;5035286;28;20446;-81
2023/06/02 01:26:25;;;;;;;4.97;3.07;;;22.50;55.80;;;;;;5020216;28;20976;-80
2023/06/02 01:28:54;;;;;;;5.10;2.70;;;22.50;55.70;;;;;;5019563;28;20442;-80
2023/06/02 01:31:29;;;;;;;5.40;2.87;;;22.50;55.70;;;;;;5019623;28;20453;-80
2023/06/02 01:34:05;;;;;;;3.50;3.17;;;22.40;55.50;;;;;;5019392;28;20486;-80
2023/06/02 01:36:38;;;;;;;4.33;3.13;;;22.40;55.50;;;;;;5036136;28;20434;-80
2023/06/02 01:39:11;;;;;;;3.80;3.30;;;22.40;55.50;;;;;;5035754;28;20459;-80
2023/06/02 01:41:47;;;;;;;5.07;3.60;;;22.40;55.50;;;;;;5052499;28;20407;-80
2023/06/02 01:44:13;;;;;;;5.40;3.27;;;22.30;55.50;;;;;;5019158;28;20781;-80
2023/06/02 01:46:44;;;;;;;4.07;3.23;;;22.30;55.50;;;;;;5018773;28;20830;-80
2023/06/02 01:49:15;;;;;;;5.17;4.03;;;22.30;55.50;;;;;;5019595;28;20438;-80
2023/06/02 01:51:45;;;;;;;5.60;3.60;;;22.30;55.40;;;;;;5019597;28;20462;-80
2023/06/02 01:54:11;;;;;;;5.07;3.73;;;22.30;55.40;;;;;;5019001;28;20828;-80
2023/06/02 01:56:39;;;;;;;6.93;4.27;;;22.30;55.50;;;;;;5036142;28;20415;-80
2023/06/02 01:59:10;;;;;;;4.83;3.90;;;22.20;55.40;;;;;;5019521;28;20597;-80
2023/06/02 02:01:42;;;;;;;5.03;3.70;;;22.20;55.40;;;;;;5019192;28;20419;-80
2023/06/02 02:04:08;;;;;;;6.50;4.30;;;22.20;55.30;;;;;;5035508;28;20442;-80
2023/06/02 02:06:34;;;;;;;4.20;3.80;;;22.20;55.40;;;;;;5037153;28;20426;-79
2023/06/02 02:09:03;;;;;;;4.50;4.10;;;22.20;55.40;;;;;;5037267;28;20404;-79
2023/06/02 02:11:32;;;;;;;5.20;4.30;;;22.20;55.40;;;;;;5036704;28;20427;-79
2023/06/02 02:13:58;;;;;;;5.60;4.40;;;22.10;55.30;;;;;;5035396;28;20526;-79
2023/06/02 02:16:29;;;;;;;4.60;4.20;;;22.10;55.30;;;;;;5018722;28;20799;-79
2023/06/02 02:18:58;;;;;;;4.73;3.67;;;22.10;55.30;;;;;;5002739;28;20471;-79
2023/06/02 02:21:26;;;;;;;5.60;4.53;;;22.10;55.20;;;;;;5003750;28;20989;-79
2023/06/02 02:23:53;;;;;;;5.57;4.30;;;22.10;55.20;;;;;;5018476;28;20439;-79
2023/06/02 02:26:25;;;;;;;5.37;4.33;;;22.00;55.30;;;;;;5018886;28;20835;-81
2023/06/02 02:28:54;;;;;;;4.83;4.33;;;22.00;55.30;;;;;;5020300;28;20415;-81
2023/06/02 02:31:22;;;;;;;5.23;4.37;;;22.00;55.30;;;;;;5023296;28;20458;-81
2023/06/02 02:33:49;;;;;;;5.23;4.57;;;22.00;55.30;;;;;;5020385;28;20807;-81
2023/06/02 02:36:17;;;;;;;7.30;3.90;;;22.00;55.30;;;;;;5003726;28;20423;-81
2023/06/02 02:38:47;;;;;;;7.90;4.20;;;21.90;55.20;;;;;;5019660;28;20910;-81
2023/06/02 02:41:14;;;;;;;7.07;4.17;;;21.90;55.20;;;;;;5035424;28;20421;-81
2023/06/02 02:43:40;;;;;;;6.17;4.53;;;21.90;55.10;;;;;;5019947;28;20446;-80
2023/06/02 02:46:06;;;;;;;4.47;4.03;;;21.90;55.10;;;;;;5019325;28;21014;-80
2023/06/02 02:48:33;;;;;;;5.90;4.33;;;21.90;55.20;;;;;;5003718;28;20877;-80
2023/06/02 02:51:05;;;;;;;5.30;4.80;;;21.90;55.20;;;;;;5019557;28;20424;-80
2023/06/02 02:53:34;;;;;;;6.40;4.73;;;21.90;55.20;;;;;;5036795;28;20446;-80
2023/06/02 02:56:04;;;;;;;5.80;4.07;;;21.80;55.10;;;;;;4988091;28;20849;-80
2023/06/02 02:58:36;;;;;;;5.10;4.57;;;21.80;55.20;;;;;;5019519;28;20461;-80
2023/06/02 03:01:04;;;;;;;5.13;4.50;;;21.80;55.20;;;;;;5019728;28;20502;-80
2023/06/02 03:03:32;;;;;;;6.20;4.77;;;21.80;55.10;;;;;;5009880;28;20447;-80
2023/06/02 03:06:01;;;;;;;6.97;5.07;;;21.80;55.10;;;;;;5034850;28;20442;-79
2023/06/02 03:08:27;;;;;;;6.03;5.30;;;21.70;55.60;;;;;;5051675;28;20408;-77
2023/06/02 03:10:54;;;;;;;7.20;5.43;;;21.70;55.00;;;;;;5035127;28;20905;-77
2023/06/02 03:13:20;;;;;;;7.67;6.20;;;21.70;55.00;;;;;;5015247;28;20400;-73
2023/06/02 03:15:49;;;;;;;9.90;5.87;;;21.70;54.90;;;;;;5015209;28;20502;-73
2023/06/02 03:18:16;;;;;;;8.33;6.10;;;21.70;55.00;;;;;;4998548;28;20451;-72
2023/06/02 03:20:48;;;;;;;7.33;6.27;;;21.70;55.00;;;;;;5015084;28;20406;-73
2023/06/02 03:23:17;;;;;;;6.83;5.60;;;21.60;54.90;;;;;;5031121;28;20474;-73
2023/06/02 03:25:49;;;;;;;7.17;5.70;;;21.60;54.80;;;;;;5031139;28;20408;-73
2023/06/02 03:28:15;;;;;;;7.80;5.90;;;21.60;54.80;;;;;;5015088;28;20423;-73
2023/06/02 03:30:46;;;;;;;6.93;6.27;;;21.60;54.90;;;;;;5015249;28;20566;-73
2023/06/02 03:33:15;;;;;;;8.70;5.60;;;21.60;54.80;;;;;;5031323;28;20969;-73
2023/06/02 03:35:41;;;;;;;11.07;6.20;;;21.60;54.90;;;;;;5002740;28;20446;-73
2023/06/02 03:38:10;;;;;;;8.67;5.80;;;21.50;54.80;;;;;;5019166;28;20814;-73
2023/06/02 03:40:37;;;;;;;11.03;5.77;;;21.50;54.90;;;;;;5019215;28;20421;-73
2023/06/02 03:43:03;;;;;;;9.87;6.70;;;21.50;54.80;;;;;;5035536;28;20412;-73
2023/06/02 03:45:32;;;;;;;8.03;5.83;;;21.50;54.70;;;;;;5035656;28;20974;-73
2023/06/02 03:48:00;;;;;;;7.30;4.80;;;21.50;54.60;;;;;;5002941;28;20499;-74
2023/06/02 03:50:26;;;;;;;7.80;4.80;;;21.50;54.60;;;;;;5019037;28;20786;-73
2023/06/02 03:52:53;;;;;;;7.67;5.03;;;21.40;54.60;;;;;;5036557;28;20435;-73
2023/06/02 03:55:22;;;;;;;10.50;5.17;;;21.40;54.70;;;;;;5051496;28;20439;-73
2023/06/02 03:57:52;;;;;;;7.13;5.07;;;21.40;54.70;;;;;;5051404;28;20445;-72
2023/06/02 04:00:19;;;;;;;6.30;4.93;;;21.40;54.70;;;;;;5051723;28;20929;-72
2023/06/02 04:02:52;;;;;;;7.73;5.73;;;21.40;54.70;;;;;;5018577;28;20430;-73
2023/06/02 04:05:24;;;;;;;7.03;5.90;;;21.30;54.60;;;;;;5002554;28;20501;-72
2023/06/02 04:07:50;;;;;;;9.10;5.10;;;21.30;54.70;;;;;;5099024;23;20672;-72
2023/06/02 04:10:18;;;;;;;5.90;5.00;;;21.30;54.70;;;;;;5032657;28;20790;-72
2023/06/02 04:12:44;;;;;;;8.60;5.20;;;21.30;54.80;;;;;;5034624;28;20383;-72
2023/06/02 04:15:12;;;;;;;6.17;5.57;;;21.30;54.70;;;;;;5016846;28;20521;-72
2023/06/02 04:17:38;;;;;;;6.13;5.30;;;21.30;54.80;;;;;;5049532;28;20939;-72
2023/06/02 04:20:07;;;;;;;5.53;4.87;;;21.20;54.70;;;;;;5016742;28;20454;-72
2023/06/02 04:22:35;;;;;;;6.80;4.30;;;21.20;54.80;;;;;;5016913;28;20966;-72
2023/06/02 04:25:01;;;;;;;7.10;5.00;;;21.20;54.80;;;;;;5033124;28;20456;-72
2023/06/02 04:27:27;;;;;;;7.93;4.43;;;21.20;54.80;;;;;;5033154;28;20467;-72
2023/06/02 04:29:54;;;;;;;6.97;4.70;;;21.20;54.80;;;;;;5049640;28;20418;-72
2023/06/02 04:32:20;;;;;;;7.30;4.83;;;21.20;54.90;;;;;;5034206;28;20419;-72
2023/06/02 04:34:49;;;;;;;7.43;4.40;;;21.20;54.90;;;;;;5016416;28;20456;-72
2023/06/02 04:37:15;;;;;;;5.83;4.90;;;21.10;54.90;;;;;;5046194;28;20455;-72
2023/06/02 04:39:46;;;;;;;14.03;4.90;;;21.10;55.00;;;;;;5012838;28;20514;-72
2023/06/02 04:42:16;;;;;;;10.10;5.10;;;21.10;55.00;;;;;;5013225;28;20423;-72
2023/06/02 04:44:48;;;;;;;7.70;5.00;;;21.10;55.00;;;;;;5028830;28;20435;-72
2023/06/02 04:47:17;;;;;;;8.67;4.53;;;21.10;55.00;;;;;;5028772;28;20502;-72
2023/06/02 04:49:43;;;;;;;6.87;5.03;;;21.10;55.10;;;;;;5046213;28;20408;-72
2023/06/02 04:52:09;;;;;;;5.77;4.30;;;21.10;55.10;;;;;;5012934;28;20474;-72
2023/06/02 04:54:38;;;;;;;5.50;4.00;;;21.10;55.10;;;;;;5013078;28;20460;-72
2023/06/02 04:57:05;;;;;;;6.90;5.00;;;21.10;55.20;;;;;;4996518;28;20454;-72
2023/06/02 04:59:38;;;;;;;6.53;3.80;;;21.00;55.10;;;;;;5012342;28;20924;-72
2023/06/02 05:02:04;;;;;;;6.63;4.07;;;21.00;55.20;;;;;;5045954;28;20461;-72
2023/06/02 05:04:30;;;;;;;5.90;4.20;;;21.00;55.20;;;;;;5032508;28;20456;-72
2023/06/02 05:06:57;;;;;;;6.43;4.30;;;21.00;55.30;;;;;;5032246;28;20446;-72
2023/06/02 05:09:23;;;;;;;6.87;4.20;;;21.00;55.30;;;;;;5016020;28;20468;-72
2023/06/02 05:11:49;;;;;;;6.43;4.40;;;21.00;55.30;;;;;;5033352;28;20822;-72
2023/06/02 05:14:16;;;;;;;5.30;4.40;;;21.00;55.40;;;;;;5032002;28;20438;-72
2023/06/02 05:16:46;;;;;;;6.13;4.60;;;20.90;55.30;;;;;;5032123;28;20806;-72
2023/06/02 05:19:15;;;;;;;7.83;4.43;;;20.90;55.40;;;;;;4999560;28;20527;-72
2023/06/02 05:21:42;;;;;;;6.80;3.90;;;20.90;55.40;;;;;;5031746;28;20442;-72
2023/06/02 05:24:08;;;;;;;7.27;3.80;;;20.90;55.50;;;;;;5015263;28;20430;-72
2023/06/02 05:26:34;;;;;;;6.07;4.03;;;20.90;55.50;;;;;;5031809;28;20489;-72
2023/06/02 05:29:02;;;;;;;11.00;4.53;;;20.90;55.50;;;;;;5032026;28;20454;-72
2023/06/02 05:31:29;;;;;;;6.20;4.20;;;20.90;55.60;;;;;;5015447;28;20843;-72
2023/06/02 05:33:56;;;;;;;6.70;4.40;;;20.80;55.50;;;;;;5015613;28;20446;-72
2023/06/02 05:36:22;;;;;;;9.80;4.60;;;20.80;55.60;;;;;;5031821;28;20415;-72
2023/06/02 05:38:50;;;;;;;5.67;3.80;;;20.80;56.20;;;;;;5048299;28;20827;-72
2023/06/02 05:41:17;;;;;;;7.40;4.57;;;20.80;55.70;;;;;;5031884;28;20450;-72
2023/06/02 05:43:50;;;;;;;6.23;4.10;;;20.80;55.60;;;;;;5048195;28;20958;-72
2023/06/02 05:46:20;;;;;;;7.77;4.50;;;20.80;55.70;;;;;;5031841;28;20418;-72
2023/06/02 05:48:47;;;;;;;7.33;4.50;;;20.80;55.70;;;;;;5048190;28;20427;-72
2023/06/02 05:51:13;;;;;;;10.07;4.73;;;20.80;55.80;;;;;;5031995;28;20935;-72
2023/06/02 05:53:41;;;;;;;5.57;4.20;;;20.70;55.60;;;;;;5045012;28;20449;-72
2023/06/02 05:56:10;;;;;;;6.30;4.43;;;20.70;55.70;;;;;;5015100;28;20472;-72
2023/06/02 05:58:39;;;;;;;9.40;4.40;;;20.70;55.70;;;;;;4998547;28;20545;-72
2023/06/02 06:01:08;;;;;;;7.83;4.70;;;20.70;55.70;;;;;;5015164;28;20444;-72
2023/06/02 06:03:36;;;;;;;5.00;4.50;;;20.70;55.70;;;;;;5031027;28;20445;-72
2023/06/02 06:06:04;;;;;;;7.87;4.50;;;20.70;55.70;;;;;;5047711;28;20453;-72
2023/06/02 06:08:31;;;;;;;8.03;4.40;;;20.60;55.70;;;;;;5030977;28;20468;-72
2023/06/02 06:10:59;;;;;;;9.53;4.77;;;20.60;55.60;;;;;;5047989;28;20415;-72
2023/06/02 06:13:26;;;;;;;5.93;4.30;;;20.60;55.70;;;;;;5031362;28;20493;-72
2023/06/02 06:15:54;;;;;;;10.53;5.03;;;20.60;55.70;;;;;;5034693;28;20410;-72
2023/06/02 06:18:20;;;;;;;6.13;4.37;;;20.60;55.70;;;;;;5052184;28;20444;-72
2023/06/02 06:20:47;;;;;;;5.40;4.57;;;20.60;55.70;;;;;;5051083;28;20771;-72
2023/06/02 06:23:15;;;;;;;5.23;4.60;;;20.60;55.70;;;;;;5018080;28;20825;-71
2023/06/02 06:25:43;;;;;;;9.17;6.30;;;20.60;55.70;;;;;;5034543;28;20798;-72
2023/06/02 06:28:09;;;;;;;6.90;5.47;;;20.50;55.70;;;;;;5034536;28;20422;-72
2023/06/02 06:30:35;;;;;;;9.07;5.03;;;20.50;55.70;;;;;;5050873;28;20446;-72
2023/06/02 06:33:05;;;;;;;8.87;6.60;;;20.50;55.60;;;;;;5050703;28;20402;-72
2023/06/02 06:35:35;;;;;;;9.37;6.17;;;20.50;55.70;;;;;;5050761;28;20532;-72
2023/06/02 06:38:04;;;;;;;7.60;5.70;;;20.50;55.70;;;;;;5001544;28;20476;-72
2023/06/02 06:40:36;;;;;;;9.03;6.40;;;20.50;55.70;;;;;;5017741;28;20421;-72
2023/06/02 06:43:05;;;;;;;7.43;6.63;;;20.50;55.70;;;;;;5050652;28;20985;-72
2023/06/02 06:45:35;;;;;;;7.10;6.30;;;20.50;55.70;;;;;;5034614;28;20430;-72
2023/06/02 06:48:05;;;;;;;6.83;6.13;;;20.50;55.70;;;;;;5050419;28;20444;-72
2023/06/02 06:50:33;;;;;;;9.57;7.70;;;20.40;55.60;;;;;;5034072;28;20451;-72
2023/06/02 06:53:02;;;;;;;9.50;6.80;;;20.40;55.60;;;;;;5029461;28;20774;-72
2023/06/02 06:55:31;;;;;;;8.97;6.10;;;20.40;55.60;;;;;;4995704;28;20453;-72
2023/06/02 06:58:00;;;;;;;11.70;6.73;;;20.40;55.70;;;;;;5011640;28;20454;-72
2023/06/02 07:00:30;;;;;;;9.60;6.80;;;20.40;55.60;;;;;;5012043;28;20481;-72
2023/06/02 07:02:56;;;;;;;9.77;6.67;;;20.40;55.60;;;;;;5012101;28;20426;-72
2023/06/02 07:05:22;;;;;;;8.67;7.17;;;20.40;55.60;;;;;;5011997;28;20516;-72
2023/06/02 07:07:52;;;;;;;8.10;6.23;;;20.40;55.60;;;;;;5029274;28;20974;-72
2023/06/02 07:10:18;;;;;;;8.47;6.63;;;20.40;55.70;;;;;;5030741;28;20421;-72
2023/06/02 07:12:44;;;;;;;8.80;6.37;;;20.40;55.70;;;;;;5049109;28;20410;-72
2023/06/02 07:15:10;;;;;;;10.93;6.40;;;20.40;55.80;;;;;;5047834;28;20446;-72
2023/06/02 07:17:39;;;;;;;6.97;5.83;;;20.30;55.80;;;;;;5030189;28;20966;-72
2023/06/02 07:20:07;;;;;;;9.10;5.90;;;20.40;55.90;;;;;;5031997;28;20435;-72
2023/06/02 07:22:33;;;;;;;8.90;6.53;;;20.40;55.90;;;;;;5049176;28;20745;-72
2023/06/02 07:25:00;;;;;;;9.90;6.37;;;20.30;55.80;;;;;;5049272;28;20444;-72
2023/06/02 07:27:26;;;;;;;6.97;5.70;;;20.30;55.90;;;;;;5049353;28;20410;-72
2023/06/02 07:29:55;;;;;;;8.13;6.53;;;20.30;55.90;;;;;;5048142;28;20429;-72
2023/06/02 07:32:21;;;;;;;7.57;6.37;;;20.30;55.80;;;;;;5031711;28;20202;-72
2023/06/02 07:34:47;;;;;;;6.87;6.23;;;20.30;55.80;;;;;;5030201;28;20474;-72
2023/06/02 07:37:18;;;;;;;7.50;6.80;;;20.30;55.90;;;;;;5048711;28;20190;-71
2023/06/02 07:39:47;;;;;;;9.83;6.43;;;20.30;55.90;;;;;;5049089;28;20456;-71
2023/06/02 07:42:13;;;;;;;8.10;6.40;;;20.30;56.00;;;;;;5047033;28;20996;-72
2023/06/02 07:44:39;;;;;;;6.70;5.97;;;20.30;56.00;;;;;;5049145;28;20451;-72
2023/06/02 07:47:07;;;;;;;9.20;6.93;;;20.20;55.90;;;;;;5029523;28;20801;-71
2023/06/02 07:49:36;;;;;;;8.83;6.10;;;20.30;56.00;;;;;;5031846;28;20479;-71
2023/06/02 07:52:02;;;;;;;8.37;5.60;;;20.20;55.90;;;;;;5031031;28;20813;-73
2023/06/02 07:54:30;;;;;;;8.30;6.13;;;20.20;56.00;;;;;;5014044;28;20478;-73
2023/06/02 07:56:59;;;;;;;8.40;6.57;;;20.20;56.00;;;;;;5015248;28;20414;-73
2023/06/02 07:59:25;;;;;;;10.50;7.00;;;20.20;56.00;;;;;;5047735;28;20460;-76
2023/06/02 08:01:53;;;;;;;7.57;6.77;;;20.20;56.00;;;;;;5031356;28;20417;-76
2023/06/02 08:04:25;;;;;;;7.40;6.50;;;20.20;56.00;;;;;;5014359;28;20469;-77
2023/06/02 08:06:57;;;;;;;9.20;6.47;;;20.20;56.00;;;;;;5031415;28;20941;-74
2023/06/02 08:09:24;;;;;;;9.70;7.57;;;20.20;56.00;;;;;;5030640;28;20441;-74
2023/06/02 08:11:53;;;;;;;8.93;7.00;;;20.20;56.10;;;;;;5046864;28;20446;-76
2023/06/02 08:14:21;;;;;;;8.57;6.40;;;20.20;56.10;;;;;;5033420;28;20429;-74
2023/06/02 08:16:48;;;;;;;8.67;7.23;;;20.20;56.10;;;;;;5032885;28;20426;-76
2023/06/02 08:19:14;;;;;;;10.53;7.30;;;20.20;56.10;;;;;;5033313;28;20511;-75
2023/06/02 08:21:42;;;;;;;9.73;7.80;;;20.20;56.10;;;;;;5020115;28;20445;-74
2023/06/02 08:24:08;;;;;;;10.10;8.23;;;20.20;56.10;;;;;;5033549;28;20522;-73
2023/06/02 08:26:40;;;;;;;8.53;7.63;;;20.20;56.20;;;;;;5053483;28;20417;-76
2023/06/02 08:29:12;;;;;;;8.43;7.50;;;20.20;56.20;;;;;;5041169;28;20887;-74
2023/06/02 08:31:38;;;;;;;8.67;7.87;;;20.20;56.20;;;;;;5020704;28;20433;-74
2023/06/02 08:34:06;;;;;;;9.97;9.00;;;20.20;56.20;;;;;;5019016;28;20506;-75
2023/06/02 08:36:39;;;;;;;9.60;8.37;;;20.20;56.20;;;;;;5054600;28;20476;-73
2023/06/02 08:39:07;;;;;;;8.80;8.00;;;20.20;56.20;;;;;;5034619;28;20461;-75
2023/06/02 08:41:38;;;;;;;11.83;8.90;;;20.20;56.20;;;;;;5020545;28;20432;-75
2023/06/02 08:44:06;;;;;;;10.00;8.80;;;20.20;56.30;;;;;;5036860;28;20775;-73
2023/06/02 08:46:37;;;;;;;13.70;10.13;;;20.20;56.30;;;;;;5017467;28;20856;-73
2023/06/02 08:49:04;;;;;;;9.83;8.93;;;20.20;56.50;;;;;;5036909;28;20449;-73
2023/06/02 08:51:37;;;;;;;10.30;9.30;;;20.20;56.30;;;;;;5020061;28;20926;-74
2023/06/02 08:54:07;;;;;;;10.93;9.40;;;20.20;56.40;;;;;;5036566;28;20488;-74
2023/06/02 08:56:36;;;;;;;9.80;8.97;;;20.20;56.40;;;;;;5054612;28;20481;-75
2023/06/02 08:59:02;;;;;;;11.33;10.00;;;20.20;56.40;;;;;;5036562;28;20438;-73
2023/06/02 09:01:30;;;;;;;11.50;10.40;;;20.20;56.40;;;;;;5036162;28;20502;-77
2023/06/02 09:03:56;;;;;;;11.70;10.47;;;20.20;56.40;;;;;;5019859;28;20457;-75
2023/06/02 09:06:25;;;;;;;11.70;10.50;;;20.10;56.30;;;;;;5035598;28;20570;-75
2023/06/02 09:09:01;;;;;;;12.10;10.70;;;20.10;56.30;;;;;;5053836;28;20443;-74
2023/06/02 09:11:32;;;;;;;13.47;12.10;;;20.10;56.30;;;;;;5036398;28;20440;-75
2023/06/02 09:13:59;;;;;;;13.17;10.80;;;20.10;56.30;;;;;;5050846;28;20957;-72
2023/06/02 09:16:37;;;;;;;12.67;10.90;;;20.10;56.30;;;;;;5052751;28;20446;-72
2023/06/02 09:19:03;;;;;;;12.30;11.10;;;20.10;56.30;;;;;;5046647;28;20540;-71
2023/06/02 09:21:39;;;;;;;14.47;11.60;;;20.10;56.30;;;;;;5048380;28;20418;-72
2023/06/02 09:24:05;;;;;;;13.73;12.40;;;20.10;56.30;;;;;;5029792;28;20455;-73
2023/06/02 09:26:34;;;;;;;18.90;12.10;;;20.10;56.30;;;;;;5054243;28;20416;-75
2023/06/02 09:29:11;;;;;;;14.60;12.10;;;20.20;56.40;;;;;;5072839;28;20457;-76
2023/06/02 09:31:51;;;;;;;16.77;11.57;;;20.10;56.30;;;;;;5041124;28;20439;-77
2023/06/02 09:34:22;;;;;;;15.13;11.70;;;20.10;55.70;;;;;;5019040;28;20474;-75
2023/06/02 09:36:54;;;;;;;18.23;11.60;;;19.90;55.40;;;;;;5053318;28;20414;-76
2023/06/02 09:39:43;;;;;;;16.20;11.77;;;19.70;56.40;;;;;;5053428;28;20466;-75
2023/06/02 09:42:12;;;;;;;17.70;10.97;;;19.50;56.30;;;;;;5035582;28;20439;-75
2023/06/02 09:44:38;;;;;;;15.40;10.37;;;19.40;56.20;;;;;;5035530;28;20450;-75
2023/06/02 09:47:25;;;;;;;14.50;11.27;;;19.40;56.60;;;;;;5017134;28;20438;-75
2023/06/02 09:49:52;;;;;;;12.03;10.40;;;19.30;57.60;;;;;;5052521;28;20830;-75
2023/06/02 09:52:18;;;;;;;13.53;9.87;;;19.20;57.90;;;;;;5035844;28;20818;-74
2023/06/02 09:54:47;;;;;;;14.77;9.90;;;19.10;58.30;;;;;;5031267;28;20982;-75
2023/06/02 09:57:15;;;;;;;12.80;10.17;;;19.10;58.10;;;;;;5053243;28;20414;-74
2023/06/02 09:59:45;;;;;;;12.17;9.40;;;19.10;57.70;;;;;;5044552;28;20473;-74
2023/06/02 10:02:12;;;;;;;18.27;10.73;;;19.00;57.90;;;;;;5035657;28;20759;-74
2023/06/02 10:04:42;;;;;;;11.07;9.90;;;19.00;58.20;;;;;;5053260;28;20847;-74
2023/06/02 10:07:39;;;;;;;11.90;9.47;;;19.00;58.00;;;;;;5071675;28;20782;-74
2023/06/02 10:10:17;;;;;;;10.93;8.83;;;18.90;58.10;;;;;;5053093;28;20998;-74
2023/06/02 10:12:49;;;;;;;12.47;7.57;;;18.80;58.10;;;;;;5051427;28;20449;-73
2023/06/02 10:15:49;;;;;;;11.53;7.00;;;18.80;58.30;;;;;;5050433;28;20533;-74
2023/06/02 10:18:34;;;;;;;7.43;6.40;;;18.80;58.50;;;;;;5034776;28;20827;-72
2023/06/02 10:21:05;;;;;;;10.60;5.43;;;18.80;59.00;;;;;;5051098;28;20527;-74
2023/06/02 10:23:50;;;;;;;10.20;4.60;;;18.80;59.70;;;;;;5018485;28;20766;-74
2023/06/02 10:26:26;;;;;;;9.13;4.90;;;18.40;60.10;;;;;;4998907;28;20547;-73
2023/06/02 10:28:55;;;;;;;9.27;4.30;;;18.30;60.40;;;;;;5026730;28;21137;-74
2023/06/02 10:31:32;;;;;;;10.27;4.57;;;18.30;60.70;;;;;;5034191;28;20442;-78
2023/06/02 10:34:04;;;;;;;9.93;4.90;;;18.50;60.80;;;;;;5051928;28;20525;-75
2023/06/02 10:37:10;;;;;;;11.40;4.90;;;18.60;60.90;;;;;;5017335;28;20844;-77
2023/06/02 10:39:42;;;;;;;13.20;4.03;;;18.70;60.70;;;;;;4972517;28;20460;-76
2023/06/02 10:42:10;;;;;;;9.23;3.67;;;18.80;60.30;;;;;;4971939;28;20503;-76
2023/06/02 10:44:36;;;;;;;6.93;3.90;;;18.90;60.30;;;;;;4978347;28;20448;-76
2023/06/02 10:47:17;;;;;;;8.70;4.77;;;19.00;62.50;;;;;;4954347;28;20478;-76
2023/06/02 10:50:01;;;;;;;8.10;4.20;;;19.00;60.60;;;;;;4988408;28;20431;-75
2023/06/02 10:52:33;;;;;;;6.90;4.17;;;18.90;61.40;;;;;;4956554;28;20463;-75
2023/06/02 10:55:08;;;;;;;6.97;4.20;;;18.70;61.00;;;;;;4978303;28;20455;-76
2023/06/02 10:57:48;;;;;;;9.43;4.57;;;18.60;62.30;;;;;;4955562;28;20547;-75
2023/06/02 11:00:43;;;;;;;7.53;3.50;;;18.60;62.40;;;;;;4955738;28;20506;-77
2023/06/02 11:03:10;;;;;;;12.93;4.00;;;18.60;62.90;;;;;;4957429;28;20445;-74
2023/06/02 11:05:41;;;;;;;6.10;3.90;;;18.70;63.40;;;;;;4973750;28;20420;-74
2023/06/02 11:08:14;;;;;;;6.10;3.60;;;18.90;65.60;;;;;;4987454;28;20485;-74
2023/06/02 11:10:49;;;;;;;9.37;4.17;;;19.00;63.00;;;;;;5002691;28;20482;-73
2023/06/02 11:13:22;;;;;;;9.63;4.20;;;19.10;63.30;;;;;;5049991;28;20441;-74
2023/06/02 11:15:53;;;;;;;6.70;4.20;;;19.20;62.80;;;;;;5031705;28;21025;-75
2023/06/02 11:18:22;;;;;;;7.67;3.97;;;19.20;61.50;;;;;;5032691;28;20468;-76
2023/06/02 11:20:50;;;;;;;9.43;4.27;;;19.30;61.60;;;;;;5028162;28;20453;-76
2023/06/02 11:23:21;;;;;;;11.03;4.70;;;19.30;62.80;;;;;;5053326;28;20974;-76
2023/06/02 11:25:49;;;;;;;11.03;4.07;;;19.40;62.50;;;;;;5014505;28;20779;-75
2023/06/02 11:28:26;;;;;;;10.97;4.37;;;19.40;62.80;;;;;;5033522;28;20451;-73
2023/06/02 11:31:16;;;;;;;12.47;4.80;;;19.50;62.60;;;;;;5031710;28;20954;-77
2023/06/02 11:33:48;;;;;;;8.00;3.73;;;19.50;61.90;;;;;;5018820;28;20442;-77
2023/06/02 11:36:25;;;;;;;8.13;4.10;;;19.60;61.60;;;;;;5017116;28;20446;-81
2023/06/02 11:39:00;;;;;;;7.20;4.47;;;19.60;63.40;;;;;;5043934;28;20836;-76
2023/06/02 11:41:27;;;;;;;17.67;4.80;;;19.70;63.30;;;;;;5071415;28;20432;-76
2023/06/02 11:44:09;;;;;;;9.47;4.37;;;19.80;63.70;;;;;;5054349;28;20454;-78
2023/06/02 11:46:36;;;;;;;11.20;4.33;;;19.90;63.30;;;;;;5033653;28;20456;-75
2023/06/02 11:49:05;;;;;;;16.20;4.90;;;20.00;63.80;;;;;;5051750;28;20486;-76
2023/06/02 11:51:33;;;;;;;5.90;4.17;;;20.10;61.90;;;;;;5002641;28;20406;-78
2023/06/02 11:54:04;;;;;;;12.97;4.77;;;20.20;61.90;;;;;;5034609;28;20443;-78
2023/06/02 11:56:35;;;;;;;7.80;4.77;;;20.20;62.30;;;;;;5038217;28;20914;-76
2023/06/02 11:59:00;;;;;;;10.00;4.67;;;20.30;61.80;;;;;;5054361;28;20461;-74
2023/06/02 12:01:33;;;;;;;9.03;5.13;;;20.30;61.50;;;;;;5054074;28;20405;-74
2023/06/02 12:04:05;;;;;;;12.80;5.60;;;20.10;61.70;;;;;;5037396;28;20465;-74
2023/06/02 12:06:40;;;;;;;18.10;5.00;;;20.00;62.30;;;;;;5020849;28;20471;-74
2023/06/02 12:09:14;;;;;;;10.50;4.50;;;19.90;63.20;;;;;;5037247;28;20435;-74
2023/06/02 12:11:41;;;;;;;17.10;5.20;;;19.80;63.90;;;;;;5054342;28;20500;-74
2023/06/02 12:14:14;;;;;;;9.57;6.37;;;19.90;62.80;;;;;;5051120;28;20446;-74
2023/06/02 12:16:47;;;;;;;8.63;5.23;;;19.80;62.30;;;;;;5052069;28;21005;-71
2023/06/02 12:19:13;;;;;;;10.90;5.50;;;19.70;64.10;;;;;;5053620;28;20982;-71
2023/06/02 12:21:40;;;;;;;11.00;4.93;;;19.60;64.90;;;;;;5055176;28;20399;-70
2023/06/02 12:24:10;;;;;;;7.87;4.47;;;19.60;63.10;;;;;;5035584;28;20459;-71
2023/06/02 12:26:40;;;;;;;11.43;5.40;;;19.70;65.20;;;;;;5036356;28;20490;-73
2023/06/02 12:29:08;;;;;;;8.23;4.17;;;19.70;66.00;;;;;;5036213;28;20460;-73
2023/06/02 12:31:38;;;;;;;15.40;5.27;;;19.90;65.60;;;;;;5037094;28;20420;-73
2023/06/02 12:34:07;;;;;;;9.00;4.97;;;20.00;65.70;;;;;;5036843;28;20459;-73
2023/06/02 12:36:36;;;;;;;7.43;4.50;;;20.10;64.60;;;;;;5053500;28;20416;-72
2023/06/02 12:39:04;;;;;;;12.30;4.70;;;20.20;64.20;;;;;;5045403;28;20493;-73
2023/06/02 12:41:33;;;;;;;6.63;4.60;;;20.30;63.80;;;;;;5052466;28;20438;-73
2023/06/02 12:44:02;;;;;;;9.87;5.37;;;20.40;63.00;;;;;;5019270;28;20564;-74
2023/06/02 12:46:28;;;;;;;11.80;4.80;;;20.50;63.80;;;;;;5035487;28;20869;-74
2023/06/02 12:48:56;;;;;;;7.70;4.70;;;20.60;61.90;;;;;;5051102;28;20798;-74
2023/06/02 12:51:22;;;;;;;9.07;4.90;;;20.70;63.00;;;;;;5034394;28;20881;-74
2023/06/02 12:53:51;;;;;;;12.97;5.00;;;20.80;62.30;;;;;;5054800;28;20538;-74
2023/06/02 12:56:17;;;;;;;8.40;4.83;;;20.90;62.30;;;;;;5048043;28;20516;-74